Time;durP1;ratioP1;P1;durP2;ratioP2;P2;SDS_P1;SDS_P2;PMS_P1;PMS_P2;Temp;Humidity;BMP_temperature;BMP_pressure;BME280_temperature;BME280_humidity;BME280_pressure;Samples;Min_cycle;Max_cycle;Signal;HPM_P1;HPM_P2
2022/09/20 00:00:46;;;;;;;7.63;3.00;;;;;;;;;;4950006;28;20047;-68
2022/09/20 00:03:25;;;;;;;7.05;3.08;;;;;;;;;;4951006;28;20043;-65
2022/09/20 00:05:51;;;;;;;6.47;3.05;;;;;;;;;;4951082;28;20055;-66
2022/09/20 00:08:17;;;;;;;8.68;3.53;;;;;;;;;;4951351;28;20050;-68
2022/09/20 00:10:43;;;;;;;8.75;3.58;;;;;;;;;;4948299;28;20074;-68
2022/09/20 00:13:12;;;;;;;8.82;3.78;;;;;;;;;;4947102;28;20051;-69
2022/09/20 00:15:45;;;;;;;8.48;3.42;;;;;;;;;;4944939;28;20047;-66
2022/09/20 00:18:12;;;;;;;10.95;3.50;;;;;;;;;;4948007;28;20051;-67
2022/09/20 00:20:45;;;;;;;10.75;3.17;;;;;;;;;;4949606;28;20521;-66
2022/09/20 00:23:11;;;;;;;5.78;3.22;;;;;;;;;;4950160;28;20077;-66
2022/09/20 00:25:38;;;;;;;5.72;3.00;;;;;;;;;;4947301;28;20070;-67
2022/09/20 00:28:04;;;;;;;7.15;3.60;;;;;;;;;;4947240;28;20058;-66
2022/09/20 00:30:32;;;;;;;9.52;3.45;;;;;;;;;;4946103;28;20110;-65
2022/09/20 00:32:58;;;;;;;8.32;3.50;;;;;;;;;;4946329;28;20062;-65
2022/09/20 00:35:24;;;;;;;6.95;3.70;;;;;;;;;;4947182;28;20094;-65
2022/09/20 00:37:50;;;;;;;7.25;3.53;;;;;;;;;;4948621;28;20118;-65
2022/09/20 00:40:19;;;;;;;6.75;3.67;;;;;;;;;;4948346;28;20054;-64
2022/09/20 00:42:46;;;;;;;12.02;3.92;;;;;;;;;;4949295;28;20058;-66
2022/09/20 00:45:28;;;;;;;7.75;3.70;;;;;;;;;;4948999;28;20051;-66
2022/09/20 00:48:04;;;;;;;7.78;3.58;;;;;;;;;;4952604;28;20110;-66
2022/09/20 00:50:39;;;;;;;12.60;3.35;;;;;;;;;;4952551;28;20043;-66
2022/09/20 00:53:16;;;;;;;9.68;3.28;;;;;;;;;;4950801;28;20284;-66
2022/09/20 00:55:48;;;;;;;8.65;3.67;;;;;;;;;;4949719;28;20078;-66
2022/09/20 00:58:14;;;;;;;12.35;3.60;;;;;;;;;;4948388;28;20105;-65
2022/09/20 01:00:42;;;;;;;9.20;3.53;;;;;;;;;;4944638;28;20521;-66
2022/09/20 01:03:10;;;;;;;9.65;3.55;;;;;;;;;;4949307;28;20071;-69
2022/09/20 01:05:37;;;;;;;7.40;3.50;;;;;;;;;;4948223;28;20421;-66
2022/09/20 01:08:03;;;;;;;8.32;3.15;;;;;;;;;;4948375;28;20039;-68
2022/09/20 01:10:30;;;;;;;9.82;3.50;;;;;;;;;;4950999;28;20077;-65
2022/09/20 01:12:56;;;;;;;10.05;3.50;;;;;;;;;;4947912;29;20059;-65
2022/09/20 01:15:26;;;;;;;8.93;3.13;;;;;;;;;;4946006;28;20065;-65
2022/09/20 01:17:55;;;;;;;9.77;3.42;;;;;;;;;;4945372;28;20528;-65
2022/09/20 01:20:28;;;;;;;7.85;3.28;;;;;;;;;;4947959;28;20047;-68
2022/09/20 01:23:08;;;;;;;6.60;3.50;;;;;;;;;;4941901;28;20070;-66
2022/09/20 01:26:06;;;;;;;6.97;3.40;;;;;;;;;;4947741;28;20044;-66
2022/09/20 01:28:32;;;;;;;8.52;3.45;;;;;;;;;;4946089;28;20055;-65
2022/09/20 01:31:02;;;;;;;9.73;3.25;;;;;;;;;;4947607;28;20101;-65
2022/09/20 01:33:37;;;;;;;9.85;3.40;;;;;;;;;;4945865;28;20118;-65
2022/09/20 01:36:04;;;;;;;7.53;3.20;;;;;;;;;;4946616;28;20142;-65
2022/09/20 01:38:38;;;;;;;10.32;3.20;;;;;;;;;;4946974;28;20159;-67
2022/09/20 01:41:23;;;;;;;6.13;3.22;;;;;;;;;;4940898;28;20055;-66
2022/09/20 01:44:12;;;;;;;7.90;2.97;;;;;;;;;;4946629;28;20556;-65
2022/09/20 01:46:42;;;;;;;5.45;3.33;;;;;;;;;;4949798;28;20497;-66
2022/09/20 01:49:10;;;;;;;9.30;3.28;;;;;;;;;;4949020;28;20138;-65
2022/09/20 01:51:55;;;;;;;5.47;3.40;;;;;;;;;;4946665;28;20105;-65
2022/09/20 01:54:36;;;;;;;5.82;2.90;;;;;;;;;;4951683;28;20043;-65
2022/09/20 01:57:23;;;;;;;10.20;3.50;;;;;;;;;;4949503;28;20081;-66
2022/09/20 02:00:06;;;;;;;5.78;3.20;;;;;;;;;;4961614;28;20051;-66
2022/09/20 02:02:59;;;;;;;11.20;3.40;;;;;;;;;;4949816;28;20060;-65
2022/09/20 02:05:44;;;;;;;8.23;3.58;;;;;;;;;;4941066;28;20062;-66
2022/09/20 02:08:28;;;;;;;6.20;3.35;;;;;;;;;;4950342;28;20052;-65
2022/09/20 02:11:17;;;;;;;6.65;3.40;;;;;;;;;;4962023;28;20062;-66
2022/09/20 02:13:48;;;;;;;8.02;3.38;;;;;;;;;;4948729;28;20039;-65
2022/09/20 02:16:26;;;;;;;14.57;3.58;;;;;;;;;;4946193;28;20064;-65
2022/09/20 02:19:29;;;;;;;11.93;3.70;;;;;;;;;;4951920;28;20051;-65
2022/09/20 02:22:38;;;;;;;6.85;3.45;;;;;;;;;;4953256;28;20050;-66
2022/09/20 02:25:07;;;;;;;7.55;3.58;;;;;;;;;;4949480;28;20047;-66
2022/09/20 02:27:42;;;;;;;8.90;3.42;;;;;;;;;;4951224;28;20113;-65
2022/09/20 02:30:33;;;;;;;7.40;3.95;;;;;;;;;;4952592;28;20078;-66
2022/09/20 02:33:20;;;;;;;10.40;3.90;;;;;;;;;;4951031;29;20099;-66
2022/09/20 02:36:23;;;;;;;8.73;3.53;;;;;;;;;;4953847;28;20054;-65
2022/09/20 02:39:11;;;;;;;9.50;3.65;;;;;;;;;;4942100;28;20055;-66
2022/09/20 02:42:10;;;;;;;9.60;3.42;;;;;;;;;;4949517;28;20079;-69
2022/09/20 02:44:39;;;;;;;5.55;3.70;;;;;;;;;;4944476;28;20059;-67
2022/09/20 02:47:24;;;;;;;7.57;3.65;;;;;;;;;;4958501;28;20454;-66
2022/09/20 02:50:27;;;;;;;7.13;3.08;;;;;;;;;;4943979;28;20420;-65
2022/09/20 02:53:11;;;;;;;10.48;3.50;;;;;;;;;;4947078;28;20058;-66
2022/09/20 02:55:42;;;;;;;7.30;3.97;;;;;;;;;;4950096;28;20078;-66
2022/09/20 02:58:21;;;;;;;5.75;3.47;;;;;;;;;;4953652;28;20058;-65
2022/09/20 03:00:58;;;;;;;11.00;3.95;;;;;;;;;;4953078;28;20048;-64
2022/09/20 03:04:08;;;;;;;6.75;4.10;;;;;;;;;;4954227;28;20055;-65
2022/09/20 03:07:11;;;;;;;9.98;3.88;;;;;;;;;;4911207;29;20048;-65
2022/09/20 03:09:55;;;;;;;10.15;4.10;;;;;;;;;;4905454;29;20069;-66
2022/09/20 03:12:58;;;;;;;6.80;3.75;;;;;;;;;;4910336;29;20059;-67
2022/09/20 03:15:48;;;;;;;10.15;3.67;;;;;;;;;;4910680;29;20051;-65
2022/09/20 03:18:19;;;;;;;6.75;3.60;;;;;;;;;;4913250;29;20092;-65
2022/09/20 03:21:08;;;;;;;8.80;3.97;;;;;;;;;;4914954;29;20052;-66
2022/09/20 03:23:50;;;;;;;6.80;3.75;;;;;;;;;;4912865;29;20052;-67
2022/09/20 03:26:35;;;;;;;7.15;4.13;;;;;;;;;;4907650;29;20044;-67
2022/09/20 03:29:17;;;;;;;8.13;3.80;;;;;;;;;;4910481;29;21177;-68
2022/09/20 03:32:12;;;;;;;13.15;4.40;;;;;;;;;;4905550;29;20290;-64
2022/09/20 03:34:48;;;;;;;;;;;;;;;;;;4901312;29;20055;-65
2022/09/20 03:37:24;;;;;;;8.85;3.60;;;;;;;;;;4901726;29;20314;-64
2022/09/20 03:39:53;;;;;;;7.78;4.03;;;;;;;;;;4920613;29;20043;-65
2022/09/20 03:42:23;;;;;;;6.70;3.78;;;;;;;;;;4947213;28;20138;-65
2022/09/20 03:44:51;;;;;;;8.00;3.65;;;;;;;;;;4950788;28;20477;-65
2022/09/20 03:47:30;;;;;;;7.95;4.18;;;;;;;;;;4950288;28;20489;-65
2022/09/20 03:50:21;;;;;;;8.32;3.92;;;;;;;;;;4956086;28;20073;-69
2022/09/20 03:53:05;;;;;;;9.52;3.90;;;;;;;;;;4948150;28;20073;-66
2022/09/20 03:55:52;;;;;;;5.95;3.83;;;;;;;;;;4951477;28;20114;-65
2022/09/20 03:58:33;;;;;;;5.93;3.30;;;;;;;;;;4947874;28;20058;-66
2022/09/20 04:01:28;;;;;;;8.30;3.88;;;;;;;;;;4951151;28;20109;-67
2022/09/20 04:03:57;;;;;;;10.23;4.40;;;;;;;;;;4947292;28;20519;-66
2022/09/20 04:07:05;;;;;;;7.07;3.80;;;;;;;;;;4951198;28;20051;-64
2022/09/20 04:09:39;;;;;;;7.43;3.80;;;;;;;;;;4946678;28;21353;-65
2022/09/20 04:12:27;;;;;;;9.20;3.90;;;;;;;;;;4949383;28;20055;-66
2022/09/20 04:15:22;;;;;;;7.38;3.70;;;;;;;;;;4940724;28;20043;-66
2022/09/20 04:18:22;;;;;;;7.75;4.80;;;;;;;;;;4943321;28;20110;-62
2022/09/20 04:21:11;;;;;;;9.27;4.03;;;;;;;;;;4944547;28;20059;-62
2022/09/20 04:23:48;;;;;;;10.02;4.22;;;;;;;;;;4932124;28;20417;-62
2022/09/20 04:26:23;;;;;;;11.52;4.28;;;;;;;;;;4940302;28;20555;-64
2022/09/20 04:29:38;;;;;;;9.80;4.45;;;;;;;;;;4943972;28;20063;-66
2022/09/20 04:32:31;;;;;;;16.23;4.90;;;;;;;;;;4923372;29;20296;-64
2022/09/20 04:38:35;;;;;;;10.57;4.20;;;;;;;;;;4829427;29;20060;-65
2022/09/20 04:41:28;;;;;;;8.32;4.15;;;;;;;;;;4830059;29;20462;-64
2022/09/20 04:44:26;;;;;;;8.18;3.95;;;;;;;;;;4827337;29;20132;-66
2022/09/20 04:47:30;;;;;;;7.47;4.55;;;;;;;;;;4830284;29;20062;-64
2022/09/20 04:50:29;;;;;;;9.13;4.50;;;;;;;;;;4828480;29;20070;-65
2022/09/20 04:52:58;;;;;;;6.78;4.55;;;;;;;;;;4826914;29;20489;-63
2022/09/20 04:55:49;;;;;;;8.00;4.68;;;;;;;;;;4832405;29;20098;-65
2022/09/20 04:58:36;;;;;;;6.35;4.32;;;;;;;;;;4832061;29;20093;-65
2022/09/20 05:01:27;;;;;;;9.18;4.65;;;;;;;;;;4829885;29;20060;-64
2022/09/20 05:04:30;;;;;;;8.95;4.53;;;;;;;;;;4828282;29;20068;-63
2022/09/20 05:07:15;;;;;;;11.68;4.85;;;;;;;;;;4836957;29;20056;-64
2022/09/20 05:10:13;;;;;;;13.50;4.57;;;;;;;;;;4862083;29;20065;-64
2022/09/20 05:13:09;;;;;;;8.85;4.60;;;;;;;;;;4865910;29;20057;-63
2022/09/20 05:15:38;;;;;;;11.48;4.63;;;;;;;;;;4939567;28;20137;-65
2022/09/20 05:18:41;;;;;;;8.10;4.53;;;;;;;;;;4940504;28;20039;-67
2022/09/20 05:21:21;;;;;;;6.75;4.30;;;;;;;;;;4939353;28;20055;-66
2022/09/20 05:24:20;;;;;;;16.67;5.20;;;;;;;;;;4942111;28;20058;-65
2022/09/20 05:27:18;;;;;;;10.73;4.60;;;;;;;;;;4943913;28;20065;-67
2022/09/20 05:30:07;;;;;;;12.20;4.63;;;;;;;;;;4945115;28;20066;-67
2022/09/20 05:33:09;;;;;;;9.23;4.18;;;;;;;;;;4932654;28;20591;-66
2022/09/20 05:36:02;;;;;;;8.07;3.97;;;;;;;;;;4943122;28;20050;-68
2022/09/20 05:38:40;;;;;;;9.70;4.43;;;;;;;;;;4944416;28;20124;-69
2022/09/20 05:41:44;;;;;;;8.75;4.50;;;;;;;;;;4942043;28;20485;-67
2022/09/20 05:44:22;;;;;;;9.83;4.60;;;;;;;;;;4940236;28;20055;-68
2022/09/20 05:47:10;;;;;;;10.77;4.50;;;;;;;;;;4942146;28;20157;-66
2022/09/20 05:49:48;;;;;;;7.82;4.10;;;;;;;;;;4941918;28;20055;-67
2022/09/20 05:52:22;;;;;;;9.43;4.78;;;;;;;;;;4940746;28;20118;-69
2022/09/20 05:55:10;;;;;;;13.13;5.50;;;;;;;;;;4941410;28;20063;-67
2022/09/20 05:57:46;;;;;;;9.80;4.07;;;;;;;;;;4937811;28;20406;-70
2022/09/20 06:00:17;;;;;;;12.93;4.07;;;;;;;;;;4937728;28;20162;-67
2022/09/20 06:03:02;;;;;;;14.63;4.82;;;;;;;;;;4938281;28;21101;-69
2022/09/20 06:06:05;;;;;;;13.27;4.10;;;;;;;;;;4942408;28;20051;-68
2022/09/20 06:08:48;;;;;;;15.70;4.43;;;;;;;;;;4940939;28;20054;-68
2022/09/20 06:11:48;;;;;;;13.35;4.13;;;;;;;;;;4941796;28;20649;-69
2022/09/20 06:14:33;;;;;;;16.40;4.22;;;;;;;;;;4939225;28;20512;-69
2022/09/20 06:17:12;;;;;;;;;;;;;;;;;;4938636;28;20062;-70
2022/09/20 06:19:45;;;;;;;14.55;4.25;;;;;;;;;;4941782;28;20392;-70
2022/09/20 06:22:20;;;;;;;12.60;4.38;;;;;;;;;;4941851;28;20063;-67
2022/09/20 06:24:59;;;;;;;7.90;4.10;;;;;;;;;;4940649;28;20349;-69
2022/09/20 06:27:33;;;;;;;14.50;3.70;;;;;;;;;;4941746;28;20039;-70
2022/09/20 06:30:04;;;;;;;13.83;3.77;;;;;;;;;;4941555;28;20051;-67
2022/09/20 06:32:31;;;;;;;14.30;4.45;;;;;;;;;;4940151;28;20978;-68
2022/09/20 06:34:59;;;;;;;11.60;4.43;;;;;;;;;;4940423;28;20055;-67
2022/09/20 06:43:05;;;;;;;;;;;;;;;;;;4939525;28;20062;-64
2022/09/20 06:45:31;;;;;;;10.93;4.10;;;;;;;;;;4952262;28;19922;-64
2022/09/20 06:47:58;;;;;;;10.98;4.00;;;;;;;;;;4964695;28;20082;-65
2022/09/20 06:50:25;;;;;;;8.18;4.20;;;;;;;;;;4944124;28;20521;-64
2022/09/20 06:52:52;;;;;;;14.50;4.40;;;;;;;;;;4950508;28;20054;-67
2022/09/20 06:55:24;;;;;;;16.67;4.32;;;;;;;;;;4949832;28;20175;-65
2022/09/20 06:57:50;;;;;;;7.68;4.00;;;;;;;;;;4955647;28;20062;-67
2022/09/20 07:00:16;;;;;;;9.38;4.20;;;;;;;;;;4961844;28;20055;-65
2022/09/20 07:02:42;;;;;;;13.05;4.40;;;;;;;;;;4958490;28;20094;-65
2022/09/20 07:05:16;;;;;;;14.82;5.28;;;;;;;;;;4950201;28;20046;-64
2022/09/20 07:07:42;;;;;;;12.57;4.90;;;;;;;;;;4961316;28;20485;-65
2022/09/20 07:10:11;;;;;;;16.15;5.22;;;;;;;;;;4952843;28;20372;-66
2022/09/20 07:12:38;;;;;;;12.70;5.40;;;;;;;;;;4953783;28;20058;-65
2022/09/20 07:15:05;;;;;;;11.73;4.30;;;;;;;;;;4954759;28;20409;-66
2022/09/20 07:17:30;;;;;;;14.90;4.95;;;;;;;;;;4950935;28;20039;-66
2022/09/20 07:19:56;;;;;;;16.10;4.90;;;;;;;;;;4963705;28;20049;-67
2022/09/20 07:22:22;;;;;;;11.73;4.57;;;;;;;;;;4955648;28;20043;-65
2022/09/20 07:24:48;;;;;;;14.10;4.68;;;;;;;;;;4958629;28;20073;-66
2022/09/20 07:27:15;;;;;;;11.05;4.18;;;;;;;;;;4962113;28;20481;-66
2022/09/20 07:29:41;;;;;;;13.52;4.53;;;;;;;;;;4963330;28;20477;-65
2022/09/20 07:32:07;;;;;;;12.45;4.60;;;;;;;;;;4954473;28;20077;-67
2022/09/20 07:34:33;;;;;;;15.10;4.53;;;;;;;;;;4964000;28;20338;-65
2022/09/20 07:36:59;;;;;;;12.07;4.53;;;;;;;;;;4953531;28;20118;-66
2022/09/20 07:39:25;;;;;;;14.80;4.07;;;;;;;;;;4950781;28;20045;-69
2022/09/20 07:41:51;;;;;;;8.52;4.28;;;;;;;;;;4961066;28;20051;-64
2022/09/20 07:44:23;;;;;;;10.32;4.20;;;;;;;;;;4949313;28;20063;-64
2022/09/20 07:46:54;;;;;;;13.18;4.20;;;;;;;;;;4961321;28;20111;-70
2022/09/20 07:49:21;;;;;;;9.43;3.90;;;;;;;;;;4966208;28;20050;-64
2022/09/20 07:51:51;;;;;;;10.00;3.72;;;;;;;;;;4962323;28;20051;-66
2022/09/20 07:54:17;;;;;;;12.70;4.25;;;;;;;;;;4952839;28;20201;-65
2022/09/20 07:56:44;;;;;;;16.20;3.90;;;;;;;;;;4950181;28;20052;-66
2022/09/20 07:59:10;;;;;;;9.52;3.63;;;;;;;;;;4956191;28;20440;-65
2022/09/20 08:01:37;;;;;;;7.55;3.72;;;;;;;;;;4956941;28;20516;-64
2022/09/20 08:04:04;;;;;;;13.35;3.80;;;;;;;;;;4955596;28;20444;-65
2022/09/20 08:06:30;;;;;;;17.88;4.35;;;;;;;;;;4951335;28;20695;-65
2022/09/20 08:08:56;;;;;;;13.38;3.97;;;;;;;;;;4951550;28;20097;-70
2022/09/20 08:11:24;;;;;;;6.72;4.00;;;;;;;;;;4951388;28;20119;-68
2022/09/20 08:13:53;;;;;;;12.05;4.13;;;;;;;;;;4955487;28;20174;-67
2022/09/20 08:16:20;;;;;;;8.80;3.53;;;;;;;;;;4960026;28;20070;-66
2022/09/20 08:18:57;;;;;;;18.73;4.35;;;;;;;;;;4959071;28;20051;-67
2022/09/20 08:21:34;;;;;;;16.88;4.57;;;;;;;;;;4954290;28;20042;-66
2022/09/20 08:24:00;;;;;;;23.15;4.55;;;;;;;;;;4954300;28;20051;-67
2022/09/20 08:26:27;;;;;;;19.45;4.13;;;;;;;;;;4953354;28;20047;-67
2022/09/20 08:28:56;;;;;;;13.18;4.15;;;;;;;;;;4954508;28;20129;-64
2022/09/20 08:31:25;;;;;;;31.30;4.47;;;;;;;;;;4961105;28;20057;-66
2022/09/20 08:33:52;;;;;;;27.25;4.00;;;;;;;;;;4955305;28;20072;-69
2022/09/20 08:36:20;;;;;;;13.73;3.60;;;;;;;;;;4957756;28;20047;-67
2022/09/20 08:38:47;;;;;;;7.95;3.70;;;;;;;;;;4951899;28;20530;-68
2022/09/20 08:41:44;;;;;;;11.15;3.03;;;;;;;;;;4960922;28;20050;-68
2022/09/20 08:44:31;;;;;;;21.33;3.40;;;;;;;;;;4957356;28;20048;-66
2022/09/20 08:47:13;;;;;;;10.02;3.35;;;;;;;;;;4959098;28;20047;-69
2022/09/20 08:49:39;;;;;;;11.02;3.13;;;;;;;;;;4954256;28;20450;-66
2022/09/20 08:52:06;;;;;;;15.95;3.13;;;;;;;;;;4952537;28;20051;-66
2022/09/20 08:54:34;;;;;;;12.23;3.03;;;;;;;;;;4961344;28;20158;-67
2022/09/20 08:57:11;;;;;;;11.57;3.47;;;;;;;;;;4964819;28;20065;-67
2022/09/20 08:59:38;;;;;;;10.60;3.30;;;;;;;;;;4965187;28;20039;-64
2022/09/20 09:02:17;;;;;;;11.15;2.90;;;;;;;;;;4948016;28;20520;-66
2022/09/20 09:04:44;;;;;;;7.22;2.80;;;;;;;;;;4954607;28;20372;-68
2022/09/20 09:07:19;;;;;;;4.88;2.50;;;;;;;;;;4961203;28;20428;-64
2022/09/20 09:09:46;;;;;;;9.73;2.80;;;;;;;;;;4949051;28;20521;-66
2022/09/20 09:12:20;;;;;;;8.07;2.67;;;;;;;;;;4951217;28;20058;-65
2022/09/20 09:14:51;;;;;;;8.50;3.15;;;;;;;;;;4959572;28;20062;-68
2022/09/20 09:17:23;;;;;;;8.05;3.50;;;;;;;;;;4948998;28;20110;-65
2022/09/20 09:19:57;;;;;;;8.57;3.05;;;;;;;;;;4947120;28;20047;-66
2022/09/20 09:22:34;;;;;;;10.07;2.85;;;;;;;;;;4946654;28;20051;-64
2022/09/20 09:25:23;;;;;;;5.40;2.33;;;;;;;;;;4963759;28;20053;-66
2022/09/20 09:27:54;;;;;;;11.25;2.60;;;;;;;;;;4954729;28;20042;-67
2022/09/20 09:30:27;;;;;;;6.78;2.22;;;;;;;;;;4965621;28;20347;-65
2022/09/20 09:33:24;;;;;;;8.23;2.42;;;;;;;;;;4964594;28;20070;-64
2022/09/20 09:36:14;;;;;;;5.13;2.65;;;;;;;;;;4964431;28;20058;-67
2022/09/20 09:38:45;;;;;;;7.88;2.75;;;;;;;;;;4946678;28;20111;-67
2022/09/20 09:41:16;;;;;;;5.07;2.28;;;;;;;;;;4954238;28;20035;-67
2022/09/20 09:43:44;;;;;;;7.18;2.50;;;;;;;;;;4951316;28;20047;-67
2022/09/20 09:46:22;;;;;;;9.00;2.30;;;;;;;;;;4950999;28;20051;-67
2022/09/20 09:49:24;;;;;;;6.40;2.53;;;;;;;;;;4944627;28;20051;-66
2022/09/20 09:52:12;;;;;;;6.30;2.40;;;;;;;;;;4944130;28;20051;-66
2022/09/20 09:54:50;;;;;;;4.28;2.17;;;;;;;;;;4954912;28;20047;-67
2022/09/20 09:57:44;;;;;;;8.07;2.15;;;;;;;;;;4947690;28;20051;-68
2022/09/20 10:00:13;;;;;;;5.15;2.15;;;;;;;;;;4939163;28;20532;-67
2022/09/20 10:02:48;;;;;;;6.60;2.28;;;;;;;;;;4950073;28;20122;-67
2022/09/20 10:05:37;;;;;;;5.53;2.50;;;;;;;;;;4965327;28;20058;-67
2022/09/20 10:08:28;;;;;;;6.00;2.30;;;;;;;;;;4947085;28;20055;-69
2022/09/20 10:10:59;;;;;;;6.38;2.22;;;;;;;;;;4958034;28;20131;-69
2022/09/20 10:13:33;;;;;;;5.72;2.10;;;;;;;;;;4957028;28;20054;-66
2022/09/20 10:16:28;;;;;;;10.02;2.58;;;;;;;;;;4969581;28;20071;-65
2022/09/20 10:19:05;;;;;;;6.95;2.50;;;;;;;;;;4957221;28;20051;-66
2022/09/20 10:21:42;;;;;;;7.60;2.67;;;;;;;;;;4948104;28;20047;-67
2022/09/20 10:24:31;;;;;;;4.47;2.30;;;;;;;;;;4952953;28;20112;-64
2022/09/20 10:27:41;;;;;;;4.50;2.15;;;;;;;;;;4956017;28;20421;-64
2022/09/20 10:30:08;;;;;;;5.07;2.03;;;;;;;;;;4931020;29;20067;-65
2022/09/20 10:32:48;;;;;;;4.55;2.45;;;;;;;;;;4931962;29;20535;-67
2022/09/20 10:35:39;;;;;;;8.27;2.28;;;;;;;;;;4929411;29;20052;-67
2022/09/20 10:38:19;;;;;;;4.75;2.05;;;;;;;;;;4928614;29;20130;-69
2022/09/20 10:43:59;;;;;;;6.00;2.20;;;;;;;;;;4930764;29;20127;-65
2022/09/20 10:46:40;;;;;;;8.27;1.83;;;;;;;;;;4930070;29;20047;-67
2022/09/20 10:49:27;;;;;;;4.82;2.40;;;;;;;;;;4929986;29;20066;-65
2022/09/20 10:52:08;;;;;;;4.72;1.90;;;;;;;;;;4926119;29;20055;-69
2022/09/20 10:54:52;;;;;;;5.85;2.03;;;;;;;;;;4931061;29;20103;-71
2022/09/20 10:57:44;;;;;;;5.53;1.80;;;;;;;;;;4930912;29;20048;-65
2022/09/20 11:00:34;;;;;;;3.65;1.67;;;;;;;;;;4916621;29;20039;-65
2022/09/20 11:03:05;;;;;;;4.85;1.90;;;;;;;;;;4928624;29;20084;-64
2022/09/20 11:05:50;;;;;;;4.18;1.80;;;;;;;;;;4950513;28;20583;-68
2022/09/20 11:08:21;;;;;;;9.20;1.98;;;;;;;;;;4962061;28;20125;-69
2022/09/20 11:10:59;;;;;;;4.03;1.88;;;;;;;;;;4952738;28;20051;-69
2022/09/20 11:13:44;;;;;;;5.75;2.33;;;;;;;;;;4965896;28;20093;-68
2022/09/20 11:16:24;;;;;;;5.82;1.83;;;;;;;;;;4946270;28;20165;-67
2022/09/20 11:19:09;;;;;;;6.43;2.30;;;;;;;;;;4951246;28;20063;-65
2022/09/20 11:22:01;;;;;;;5.93;2.10;;;;;;;;;;4957759;28;20046;-68
2022/09/20 11:24:30;;;;;;;4.05;2.00;;;;;;;;;;4964643;28;20055;-65
2022/09/20 11:27:17;;;;;;;5.35;2.17;;;;;;;;;;4967276;28;20069;-65
2022/09/20 11:29:49;;;;;;;8.88;2.63;;;;;;;;;;4972685;28;20103;-66
2022/09/20 11:32:21;;;;;;;8.73;2.13;;;;;;;;;;4974551;28;20508;-65
2022/09/20 11:34:54;;;;;;;4.43;2.58;;;;;;;;;;4975043;28;20138;-65
2022/09/20 11:37:24;;;;;;;8.52;2.17;;;;;;;;;;4962805;28;20065;-68
2022/09/20 11:39:53;;;;;;;7.03;1.95;;;;;;;;;;4965342;28;20558;-66
2022/09/20 11:42:29;;;;;;;4.90;1.80;;;;;;;;;;4958595;28;20047;-65
2022/09/20 11:44:55;;;;;;;7.70;2.00;;;;;;;;;;4941780;28;20043;-68
2022/09/20 11:47:29;;;;;;;3.88;2.00;;;;;;;;;;4961111;28;20047;-66
2022/09/20 11:50:07;;;;;;;8.20;2.50;;;;;;;;;;4952880;28;20047;-67
2022/09/20 11:52:33;;;;;;;7.38;2.22;;;;;;;;;;4950925;28;20051;-70
2022/09/20 11:55:33;;;;;;;4.53;1.88;;;;;;;;;;4946606;28;20400;-68
2022/09/20 11:58:07;;;;;;;6.45;2.60;;;;;;;;;;4949026;28;20059;-67
2022/09/20 12:00:37;;;;;;;6.75;2.45;;;;;;;;;;4956318;28;20424;-67
2022/09/20 12:03:25;;;;;;;3.90;2.45;;;;;;;;;;4950614;28;20059;-67
2022/09/20 12:06:21;;;;;;;6.50;2.40;;;;;;;;;;4949733;28;20051;-66
2022/09/20 12:08:51;;;;;;;5.53;2.58;;;;;;;;;;4946429;28;20142;-70
2022/09/20 12:11:28;;;;;;;15.18;4.57;;;;;;;;;;4947825;28;20094;-66
2022/09/20 12:14:04;;;;;;;17.48;6.32;;;;;;;;;;4950910;28;20125;-68
2022/09/20 12:16:45;;;;;;;21.05;7.78;;;;;;;;;;4949949;28;20044;-70
2022/09/20 12:19:21;;;;;;;8.52;3.30;;;;;;;;;;4965271;28;20058;-67
2022/09/20 12:21:59;;;;;;;6.38;2.30;;;;;;;;;;4950410;28;20051;-66
2022/09/20 12:24:33;;;;;;;6.85;2.90;;;;;;;;;;4949064;28;20078;-65
2022/09/20 12:27:26;;;;;;;7.90;2.72;;;;;;;;;;4949600;28;20513;-67
2022/09/20 12:30:02;;;;;;;4.63;2.20;;;;;;;;;;4948182;28;20047;-65
2022/09/20 12:32:56;;;;;;;3.03;2.00;;;;;;;;;;4949130;28;20391;-67
2022/09/20 12:35:44;;;;;;;4.75;2.30;;;;;;;;;;4950253;28;20501;-66
2022/09/20 12:38:19;;;;;;;6.28;2.30;;;;;;;;;;4948446;28;20115;-66
2022/09/20 12:41:07;;;;;;;8.88;2.30;;;;;;;;;;4947941;28;20051;-68
2022/09/20 12:43:37;;;;;;;8.10;2.25;;;;;;;;;;4944563;28;20058;-68
2022/09/20 12:46:03;;;;;;;4.47;2.20;;;;;;;;;;4948231;28;20098;-64
2022/09/20 12:48:35;;;;;;;6.65;2.40;;;;;;;;;;4962198;28;20047;-65
2022/09/20 12:54:15;;;;;;;8.15;4.60;;;;;;;;;;4946292;28;20082;-68
2022/09/20 12:56:45;;;;;;;6.18;2.80;;;;;;;;;;4967768;28;20058;-66
2022/09/20 12:59:27;;;;;;;12.65;4.20;;;;;;;;;;4949103;28;20046;-66
2022/09/20 13:01:53;;;;;;;9.82;4.00;;;;;;;;;;4947701;28;20051;-71
2022/09/20 13:04:52;;;;;;;5.45;2.75;;;;;;;;;;4966638;28;20057;-68
2022/09/20 13:07:32;;;;;;;6.63;2.30;;;;;;;;;;4952633;28;20062;-70
2022/09/20 13:10:05;;;;;;;4.35;2.05;;;;;;;;;;4968435;28;20058;-69
2022/09/20 13:12:35;;;;;;;5.57;2.50;;;;;;;;;;4964964;28;20081;-66
2022/09/20 13:15:02;;;;;;;4.38;2.50;;;;;;;;;;4969791;28;20138;-67
2022/09/20 13:17:30;;;;;;;8.50;2.38;;;;;;;;;;4972482;28;20055;-67
2022/09/20 13:19:57;;;;;;;5.35;2.30;;;;;;;;;;4969838;28;20053;-67
2022/09/20 13:22:35;;;;;;;6.20;2.45;;;;;;;;;;4958312;28;20043;-68
2022/09/20 13:25:05;;;;;;;3.95;2.05;;;;;;;;;;4949774;28;20130;-69
2022/09/20 13:27:47;;;;;;;8.32;2.70;;;;;;;;;;4965766;28;20490;-67
2022/09/20 13:30:18;;;;;;;5.05;1.98;;;;;;;;;;4971527;28;20046;-69
2022/09/20 13:32:45;;;;;;;6.65;2.00;;;;;;;;;;4960180;28;20122;-67
2022/09/20 13:35:11;;;;;;;5.40;2.20;;;;;;;;;;4954020;28;20057;-68
2022/09/20 13:37:57;;;;;;;4.40;2.22;;;;;;;;;;4953375;28;20051;-66
2022/09/20 13:40:23;;;;;;;5.38;2.25;;;;;;;;;;4959315;28;20444;-69
2022/09/20 13:42:51;;;;;;;4.15;2.03;;;;;;;;;;4971403;28;20051;-69
2022/09/20 13:45:19;;;;;;;3.90;2.17;;;;;;;;;;4961210;28;20048;-68
2022/09/20 13:47:51;;;;;;;3.67;2.00;;;;;;;;;;4958644;28;20055;-71
2022/09/20 13:50:20;;;;;;;3.60;1.75;;;;;;;;;;4969957;28;20567;-65
2022/09/20 13:52:51;;;;;;;5.43;2.30;;;;;;;;;;4957469;28;20413;-66
2022/09/20 13:55:27;;;;;;;6.97;2.40;;;;;;;;;;4955135;28;20055;-67
2022/09/20 13:57:56;;;;;;;4.32;2.00;;;;;;;;;;4953281;28;20177;-66
2022/09/20 14:00:25;;;;;;;7.53;2.20;;;;;;;;;;4948452;28;20048;-65
2022/09/20 14:02:55;;;;;;;4.30;2.10;;;;;;;;;;4949585;28;20125;-68
2022/09/20 14:05:25;;;;;;;5.65;1.88;;;;;;;;;;4953688;28;20132;-67
2022/09/20 14:07:51;;;;;;;6.43;2.22;;;;;;;;;;4968169;28;20046;-70
2022/09/20 14:10:29;;;;;;;5.47;1.92;;;;;;;;;;4964782;28;20449;-69
2022/09/20 14:12:57;;;;;;;6.30;2.22;;;;;;;;;;4982202;28;20074;-65
2022/09/20 14:15:25;;;;;;;6.32;2.33;;;;;;;;;;4965631;28;20047;-68
2022/09/20 14:17:54;;;;;;;5.05;2.47;;;;;;;;;;4959857;28;20059;-68
2022/09/20 14:20:21;;;;;;;6.60;2.33;;;;;;;;;;4953909;28;20051;-68
2022/09/20 14:22:47;;;;;;;7.70;2.38;;;;;;;;;;4951905;28;20063;-68
2022/09/20 14:25:13;;;;;;;4.45;1.98;;;;;;;;;;4966110;28;20051;-65
2022/09/20 14:27:39;;;;;;;3.30;1.90;;;;;;;;;;4951978;28;20050;-66
2022/09/20 14:30:06;;;;;;;4.72;2.03;;;;;;;;;;4966418;28;20043;-67
2022/09/20 14:32:42;;;;;;;4.45;2.13;;;;;;;;;;4951696;28;20057;-67
2022/09/20 14:35:15;;;;;;;4.20;2.00;;;;;;;;;;4951372;28;20194;-69
2022/09/20 14:37:50;;;;;;;5.00;1.90;;;;;;;;;;4961776;28;20062;-68
2022/09/20 14:40:47;;;;;;;7.13;2.47;;;;;;;;;;4966530;28;20046;-68
2022/09/20 14:43:34;;;;;;;6.80;2.10;;;;;;;;;;4969976;28;20121;-68
2022/09/20 14:46:06;;;;;;;4.78;2.20;;;;;;;;;;4950449;28;20058;-71
2022/09/20 14:48:33;;;;;;;4.78;2.28;;;;;;;;;;4941542;28;20469;-67
2022/09/20 14:51:15;;;;;;;7.00;2.40;;;;;;;;;;4941938;28;20047;-66
2022/09/20 14:53:46;;;;;;;5.70;2.50;;;;;;;;;;4957844;28;20050;-67
2022/09/20 14:56:14;;;;;;;5.43;2.20;;;;;;;;;;4946075;28;20114;-70
2022/09/20 14:59:04;;;;;;;4.55;2.30;;;;;;;;;;4952479;28;20047;-67
2022/09/20 15:01:30;;;;;;;7.82;2.63;;;;;;;;;;4949265;28;20050;-69
2022/09/20 15:03:57;;;;;;;8.93;2.47;;;;;;;;;;4951408;28;20043;-66
2022/09/20 15:06:24;;;;;;;8.23;2.38;;;;;;;;;;4940723;28;20138;-69
2022/09/20 15:08:50;;;;;;;5.07;2.40;;;;;;;;;;4939825;28;20533;-70
2022/09/20 15:11:17;;;;;;;5.60;2.50;;;;;;;;;;4954080;28;20062;-67
2022/09/20 15:13:43;;;;;;;4.35;2.40;;;;;;;;;;4949292;28;20047;-69
2022/09/20 15:16:12;;;;;;;5.60;2.42;;;;;;;;;;4955583;28;20058;-67
2022/09/20 15:18:42;;;;;;;7.78;3.05;;;;;;;;;;4951902;28;20062;-69
2022/09/20 15:21:10;;;;;;;6.20;2.53;;;;;;;;;;4950304;28;20051;-67
2022/09/20 15:23:38;;;;;;;6.07;2.50;;;;;;;;;;4959229;28;20046;-71
2022/09/20 15:26:05;;;;;;;6.38;2.63;;;;;;;;;;4951839;28;20134;-70
2022/09/20 15:28:32;;;;;;;7.72;2.72;;;;;;;;;;4959277;28;20057;-69
2022/09/20 15:30:58;;;;;;;6.07;2.40;;;;;;;;;;4948940;28;20047;-67
2022/09/20 15:33:24;;;;;;;9.77;3.00;;;;;;;;;;4949144;28;20137;-67
2022/09/20 15:35:50;;;;;;;6.93;2.78;;;;;;;;;;4948491;28;20047;-69
2022/09/20 15:38:19;;;;;;;6.18;2.33;;;;;;;;;;4941987;28;20386;-67
2022/09/20 15:40:47;;;;;;;6.28;3.05;;;;;;;;;;4946106;28;20047;-70
2022/09/20 15:43:16;;;;;;;9.05;2.67;;;;;;;;;;4950194;28;20051;-68
2022/09/20 15:45:53;;;;;;;6.65;2.50;;;;;;;;;;4945867;28;20106;-66
2022/09/20 15:48:22;;;;;;;5.13;2.30;;;;;;;;;;4951796;28;20047;-67
2022/09/20 15:51:00;;;;;;;6.93;2.42;;;;;;;;;;4949799;28;20531;-68
2022/09/20 15:53:32;;;;;;;3.85;2.45;;;;;;;;;;4937994;28;20482;-66